NDF47 EDDH-EGAA
Flight info
| Callsign | NDF47 |
|---|---|
| Flight time | 1h 35m |
| Altitude | 38000 |
| Route | WSN5G/33 WSN N125 ITMIZ DCT MIMVA L602 NALAX L46 GETNO DCT REMSI DCT UVPOK M147 ROBOP M146 IPSET P6 BELZU DCT |
| Aircraft | A320/M-SDE3FGHIRWY/LB1 |
Departure
| Time | 2026-05-05 17:33 |
|---|---|
| Airport | Hamburg Helmut Schmidt Airport (EDDH) |
Arrival
| Time | 2026-05-05 19:08 |
|---|---|
| Airport | Belfast International Airport (EGAA) |
| Time | Latitude | Longitude | Altitude | Speed | Heading |
|---|---|---|---|---|---|
| 2026-05-05 17:10 | 53.63168 | 10.00368 | 49 ft | 0 kts | 86° |
| 2026-05-05 17:24 | 53.63168 | 10.00362 | 48 ft | 3 kts | 87° |
| 2026-05-05 17:25 | 53.63167 | 10.00317 | 48 ft | 4 kts | 92° |
| 2026-05-05 17:25 | 53.63168 | 10.00287 | 48 ft | 4 kts | 96° |
| 2026-05-05 17:25 | 53.63175 | 10.00228 | 46 ft | 4 kts | 110° |
| 2026-05-05 17:25 | 53.63187 | 10.00190 | 42 ft | 4 kts | 147° |
| 2026-05-05 17:26 | 53.63195 | 10.00182 | 47 ft | 0 kts | 176° |
| 2026-05-05 17:28 | 53.63194 | 10.00182 | 47 ft | 2 kts | 176° |
| 2026-05-05 17:28 | 53.63164 | 10.00186 | 44 ft | 4 kts | 176° |
| 2026-05-05 17:29 | 53.63139 | 10.00189 | 48 ft | 3 kts | 176° |
| 2026-05-05 17:29 | 53.63093 | 10.00193 | 45 ft | 10 kts | 181° |
| 2026-05-05 17:29 | 53.63019 | 10.00132 | 47 ft | 12 kts | 213° |
| 2026-05-05 17:29 | 53.62953 | 10.00059 | 48 ft | 11 kts | 215° |
| 2026-05-05 17:30 | 53.62912 | 9.99966 | 47 ft | 9 kts | 243° |
| 2026-05-05 17:30 | 53.62897 | 9.99917 | 48 ft | 0 kts | 243° |
| 2026-05-05 17:30 | 53.62893 | 9.99902 | 47 ft | 6 kts | 243° |
| 2026-05-05 17:31 | 53.62873 | 9.99837 | 45 ft | 7 kts | 243° |
| 2026-05-05 17:31 | 53.62866 | 9.99754 | 45 ft | 7 kts | 297° |
| 2026-05-05 17:31 | 53.62885 | 9.99732 | 45 ft | 0 kts | 329° |
| 2026-05-05 17:32 | 53.62896 | 9.99721 | 45 ft | 10 kts | 330° |
| 2026-05-05 17:32 | 53.63170 | 9.99485 | 46 ft | 81 kts | 333° |
| 2026-05-05 17:32 | 53.63861 | 9.98889 | 50 ft | 139 kts | 333° |
| 2026-05-05 17:32 | 53.64824 | 9.98038 | 248 ft | 167 kts | 333° |
| 2026-05-05 17:33 | 53.65873 | 9.97125 | 981 ft | 167 kts | 336° |
| 2026-05-05 17:33 | 53.66906 | 9.96247 | 1797 ft | 166 kts | 336° |
| 2026-05-05 17:33 | 53.67924 | 9.95379 | 2554 ft | 165 kts | 336° |
| 2026-05-05 17:33 | 53.69013 | 9.94458 | 2941 ft | 185 kts | 336° |
| 2026-05-05 17:34 | 53.70227 | 9.93438 | 3289 ft | 204 kts | 333° |
| 2026-05-05 17:34 | 53.71289 | 9.91739 | 3717 ft | 221 kts | 298° |
| 2026-05-05 17:34 | 53.71519 | 9.89117 | 4214 ft | 244 kts | 262° |
| 2026-05-05 17:34 | 53.71080 | 9.86197 | 4713 ft | 267 kts | 253° |
| 2026-05-05 17:35 | 53.70464 | 9.83216 | 5603 ft | 270 kts | 250° |
| 2026-05-05 17:35 | 53.69809 | 9.80246 | 6624 ft | 269 kts | 250° |
| 2026-05-05 17:35 | 53.69168 | 9.77320 | 7572 ft | 270 kts | 250° |
| 2026-05-05 17:35 | 53.68530 | 9.74329 | 8506 ft | 272 kts | 251° |
| 2026-05-05 17:36 | 53.67909 | 9.71295 | 9407 ft | 276 kts | 251° |
| 2026-05-05 17:36 | 53.67291 | 9.68220 | 10132 ft | 279 kts | 251° |
| 2026-05-05 17:36 | 53.66650 | 9.64993 | 10481 ft | 302 kts | 251° |
| 2026-05-05 17:36 | 53.65967 | 9.61533 | 10922 ft | 317 kts | 252° |
| 2026-05-05 17:37 | 53.65156 | 9.58034 | 11633 ft | 324 kts | 243° |
| 2026-05-05 17:37 | 53.63935 | 9.54828 | 12393 ft | 328 kts | 234° |
| 2026-05-05 17:37 | 53.62583 | 9.51696 | 13154 ft | 332 kts | 234° |
| 2026-05-05 17:37 | 53.61217 | 9.48523 | 13874 ft | 337 kts | 234° |
| 2026-05-05 17:38 | 53.59836 | 9.45311 | 14529 ft | 340 kts | 235° |
| 2026-05-05 17:38 | 53.58445 | 9.42072 | 15207 ft | 343 kts | 235° |
| 2026-05-05 17:38 | 53.57042 | 9.38809 | 15899 ft | 346 kts | 235° |
| 2026-05-05 17:38 | 53.55624 | 9.35519 | 16569 ft | 349 kts | 235° |
| 2026-05-05 17:39 | 53.54193 | 9.32206 | 17241 ft | 352 kts | 234° |
| 2026-05-05 17:39 | 53.52748 | 9.28869 | 17897 ft | 355 kts | 234° |
| 2026-05-05 17:39 | 53.51292 | 9.25507 | 18507 ft | 358 kts | 234° |
| 2026-05-05 17:39 | 53.49824 | 9.22111 | 19084 ft | 360 kts | 234° |
| 2026-05-05 17:40 | 53.48350 | 9.18700 | 19670 ft | 362 kts | 234° |
| 2026-05-05 17:40 | 53.46870 | 9.15275 | 20242 ft | 364 kts | 234° |
| 2026-05-05 17:40 | 53.45375 | 9.11823 | 20820 ft | 366 kts | 234° |
| 2026-05-05 17:40 | 53.43870 | 9.08369 | 21380 ft | 368 kts | 234° |
| 2026-05-05 17:41 | 53.42347 | 9.04891 | 21939 ft | 371 kts | 234° |
| 2026-05-05 17:41 | 53.40816 | 9.01397 | 22489 ft | 373 kts | 234° |
| 2026-05-05 17:41 | 53.39276 | 8.97887 | 23017 ft | 375 kts | 234° |
| 2026-05-05 17:41 | 53.37726 | 8.94360 | 23523 ft | 377 kts | 234° |
| 2026-05-05 17:42 | 53.36166 | 8.90802 | 23962 ft | 379 kts | 234° |
| 2026-05-05 17:42 | 53.34747 | 8.87076 | 24397 ft | 381 kts | 242° |
| 2026-05-05 17:42 | 53.33718 | 8.82969 | 24830 ft | 384 kts | 249° |
| 2026-05-05 17:42 | 53.32800 | 8.78769 | 25258 ft | 385 kts | 249° |
| 2026-05-05 17:43 | 53.31871 | 8.74556 | 25702 ft | 387 kts | 249° |
| 2026-05-05 17:43 | 53.30932 | 8.70327 | 26133 ft | 389 kts | 248° |
| 2026-05-05 17:43 | 53.29987 | 8.66085 | 26553 ft | 390 kts | 248° |
| 2026-05-05 17:43 | 53.29040 | 8.61826 | 26957 ft | 392 kts | 248° |
| 2026-05-05 17:44 | 53.28098 | 8.57539 | 27368 ft | 394 kts | 249° |
| 2026-05-05 17:44 | 53.27158 | 8.53235 | 27768 ft | 395 kts | 249° |
| 2026-05-05 17:44 | 53.26218 | 8.48907 | 28167 ft | 397 kts | 249° |
| 2026-05-05 17:44 | 53.25334 | 8.44526 | 28557 ft | 399 kts | 250° |
| 2026-05-05 17:45 | 53.24500 | 8.40094 | 28939 ft | 401 kts | 251° |
| 2026-05-05 17:45 | 53.23688 | 8.35622 | 29314 ft | 403 kts | 251° |
| 2026-05-05 17:45 | 53.22874 | 8.31130 | 29681 ft | 405 kts | 251° |
| 2026-05-05 17:45 | 53.22049 | 8.26632 | 30019 ft | 407 kts | 251° |
| 2026-05-05 17:46 | 53.21206 | 8.22123 | 30320 ft | 408 kts | 250° |
| 2026-05-05 17:46 | 53.20348 | 8.17608 | 30612 ft | 409 kts | 250° |
| 2026-05-05 17:46 | 53.19478 | 8.13072 | 30906 ft | 411 kts | 250° |
| 2026-05-05 17:46 | 53.18608 | 8.08532 | 31195 ft | 412 kts | 250° |
| 2026-05-05 17:47 | 53.17745 | 8.03977 | 31512 ft | 412 kts | 250° |
| 2026-05-05 17:47 | 53.16889 | 7.99430 | 31930 ft | 410 kts | 250° |
| 2026-05-05 17:47 | 53.16036 | 7.94896 | 32344 ft | 409 kts | 250° |
| 2026-05-05 17:47 | 53.15187 | 7.90395 | 32754 ft | 407 kts | 250° |
| 2026-05-05 17:48 | 53.14335 | 7.85902 | 33160 ft | 406 kts | 249° |
| 2026-05-05 17:48 | 53.13484 | 7.81439 | 33564 ft | 404 kts | 249° |
| 2026-05-05 17:48 | 53.12631 | 7.76987 | 33952 ft | 402 kts | 249° |
| 2026-05-05 17:48 | 53.11790 | 7.72617 | 34268 ft | 402 kts | 249° |
| 2026-05-05 17:49 | 53.10999 | 7.68147 | 34530 ft | 404 kts | 255° |
| 2026-05-05 17:49 | 53.10615 | 7.63423 | 34775 ft | 410 kts | 264° |
| 2026-05-05 17:49 | 53.10652 | 7.58725 | 35008 ft | 413 kts | 268° |
| 2026-05-05 17:49 | 53.10743 | 7.53953 | 35254 ft | 413 kts | 268° |
| 2026-05-05 17:50 | 53.10823 | 7.49175 | 35494 ft | 414 kts | 268° |
| 2026-05-05 17:50 | 53.10898 | 7.44320 | 35747 ft | 414 kts | 268° |
| 2026-05-05 17:50 | 53.10966 | 7.39586 | 35971 ft | 415 kts | 268° |
| 2026-05-05 17:50 | 53.11032 | 7.34724 | 36211 ft | 415 kts | 268° |
| 2026-05-05 17:51 | 53.11096 | 7.29925 | 36438 ft | 415 kts | 268° |
| 2026-05-05 17:51 | 53.11161 | 7.25181 | 36661 ft | 416 kts | 268° |
| 2026-05-05 17:51 | 53.11229 | 7.20376 | 36876 ft | 416 kts | 268° |
| 2026-05-05 17:51 | 53.11297 | 7.15555 | 37089 ft | 416 kts | 268° |
| 2026-05-05 17:52 | 53.11359 | 7.10740 | 37299 ft | 417 kts | 268° |
| 2026-05-05 17:52 | 53.11416 | 7.05916 | 37500 ft | 417 kts | 268° |
| 2026-05-05 17:52 | 53.11471 | 7.01092 | 37712 ft | 417 kts | 268° |
| 2026-05-05 17:52 | 53.11526 | 6.96257 | 37886 ft | 418 kts | 269° |
| 2026-05-05 17:53 | 53.11581 | 6.91419 | 37923 ft | 418 kts | 268° |
| 2026-05-05 17:53 | 53.11690 | 6.81740 | 37921 ft | 418 kts | 268° |
| 2026-05-05 17:54 | 53.11787 | 6.72067 | 37921 ft | 418 kts | 268° |
| 2026-05-05 17:54 | 53.11867 | 6.62397 | 37920 ft | 418 kts | 268° |
| 2026-05-05 17:55 | 53.11945 | 6.52706 | 37920 ft | 419 kts | 268° |
| 2026-05-05 17:55 | 53.12017 | 6.43006 | 37925 ft | 419 kts | 268° |
| 2026-05-05 17:56 | 53.12088 | 6.33302 | 37925 ft | 419 kts | 268° |
| 2026-05-05 17:56 | 53.12143 | 6.23599 | 37933 ft | 419 kts | 268° |
| 2026-05-05 17:57 | 53.12187 | 6.13886 | 37944 ft | 420 kts | 268° |
| 2026-05-05 17:57 | 53.12226 | 6.04170 | 37945 ft | 420 kts | 267° |
| 2026-05-05 17:58 | 53.12258 | 5.94435 | 37952 ft | 421 kts | 267° |
| 2026-05-05 17:58 | 53.12284 | 5.84693 | 37949 ft | 421 kts | 267° |
| 2026-05-05 17:59 | 53.12302 | 5.74937 | 37952 ft | 421 kts | 267° |
| 2026-05-05 17:59 | 53.12306 | 5.65241 | 37951 ft | 422 kts | 267° |
| 2026-05-05 18:00 | 53.12308 | 5.55470 | 37946 ft | 422 kts | 267° |
| 2026-05-05 18:00 | 53.12302 | 5.45699 | 37947 ft | 423 kts | 267° |
| 2026-05-05 18:01 | 53.12286 | 5.35905 | 37951 ft | 423 kts | 267° |
| 2026-05-05 18:01 | 53.12260 | 5.26112 | 37951 ft | 423 kts | 266° |
| 2026-05-05 18:02 | 53.12229 | 5.16318 | 37951 ft | 423 kts | 266° |
| 2026-05-05 18:02 | 53.12191 | 5.06517 | 37955 ft | 424 kts | 266° |
| 2026-05-05 18:03 | 53.12143 | 4.96700 | 37956 ft | 424 kts | 266° |
| 2026-05-05 18:03 | 53.12080 | 4.86884 | 37961 ft | 424 kts | 266° |
| 2026-05-05 18:04 | 53.12014 | 4.77070 | 37964 ft | 424 kts | 266° |
| 2026-05-05 18:04 | 53.11943 | 4.67243 | 37963 ft | 424 kts | 266° |
| 2026-05-05 18:05 | 53.11867 | 4.57419 | 37965 ft | 425 kts | 266° |
| 2026-05-05 18:05 | 53.11793 | 4.49254 | 37968 ft | 425 kts | 266° |
| 2026-05-05 18:06 | 53.11697 | 4.39361 | 37970 ft | 425 kts | 266° |
| 2026-05-05 18:06 | 53.11592 | 4.29527 | 37970 ft | 425 kts | 266° |
| 2026-05-05 18:07 | 53.11478 | 4.19699 | 37970 ft | 425 kts | 266° |
| 2026-05-05 18:07 | 53.11365 | 4.09928 | 37973 ft | 425 kts | 266° |
| 2026-05-05 18:08 | 53.11238 | 4.00094 | 37974 ft | 425 kts | 266° |
| 2026-05-05 18:08 | 53.11097 | 3.90251 | 37979 ft | 425 kts | 266° |
| 2026-05-05 18:09 | 53.10950 | 3.80414 | 37980 ft | 425 kts | 266° |
| 2026-05-05 18:09 | 53.10799 | 3.70566 | 37986 ft | 426 kts | 266° |
| 2026-05-05 18:10 | 53.10646 | 3.60720 | 37990 ft | 426 kts | 266° |
| 2026-05-05 18:10 | 53.10474 | 3.50873 | 37985 ft | 426 kts | 265° |
| 2026-05-05 18:11 | 53.10292 | 3.41021 | 37983 ft | 426 kts | 265° |
| 2026-05-05 18:11 | 53.10193 | 3.31160 | 37979 ft | 427 kts | 272° |
| 2026-05-05 18:12 | 53.11282 | 3.21406 | 37972 ft | 430 kts | 279° |
| 2026-05-05 18:12 | 53.12586 | 3.11689 | 37972 ft | 430 kts | 279° |
| 2026-05-05 18:13 | 53.13870 | 3.01964 | 37976 ft | 430 kts | 279° |
| 2026-05-05 18:13 | 53.15137 | 2.92234 | 37976 ft | 430 kts | 279° |
| 2026-05-05 18:14 | 53.16408 | 2.82493 | 37977 ft | 430 kts | 279° |
| 2026-05-05 18:14 | 53.17667 | 2.72759 | 37983 ft | 430 kts | 279° |
| 2026-05-05 18:15 | 53.18920 | 2.63021 | 37980 ft | 430 kts | 279° |
| 2026-05-05 18:15 | 53.20155 | 2.53268 | 37982 ft | 430 kts | 279° |
| 2026-05-05 18:16 | 53.21388 | 2.43517 | 37982 ft | 429 kts | 279° |
| 2026-05-05 18:16 | 53.22621 | 2.33772 | 37982 ft | 429 kts | 279° |
| 2026-05-05 18:17 | 53.23840 | 2.24014 | 37982 ft | 429 kts | 279° |
| 2026-05-05 18:17 | 53.25042 | 2.14246 | 37986 ft | 430 kts | 279° |
| 2026-05-05 18:18 | 53.26239 | 2.04467 | 37986 ft | 430 kts | 279° |
| 2026-05-05 18:18 | 53.27439 | 1.94685 | 37994 ft | 430 kts | 279° |
| 2026-05-05 18:19 | 53.28631 | 1.84886 | 37993 ft | 430 kts | 279° |
| 2026-05-05 18:19 | 53.29811 | 1.75079 | 37992 ft | 430 kts | 279° |
| 2026-05-05 18:20 | 53.30981 | 1.65271 | 37993 ft | 430 kts | 279° |
| 2026-05-05 18:20 | 53.32144 | 1.55462 | 37992 ft | 430 kts | 279° |
| 2026-05-05 18:21 | 53.33360 | 1.45654 | 37997 ft | 431 kts | 281° |
| 2026-05-05 18:21 | 53.34786 | 1.35983 | 37994 ft | 431 kts | 282° |
| 2026-05-05 18:22 | 53.36277 | 1.26193 | 37996 ft | 431 kts | 282° |
| 2026-05-05 18:22 | 53.37698 | 1.16501 | 37999 ft | 431 kts | 281° |
| 2026-05-05 18:23 | 53.39084 | 1.06733 | 37990 ft | 431 kts | 281° |
| 2026-05-05 18:23 | 53.40458 | 0.96957 | 38004 ft | 431 kts | 281° |
| 2026-05-05 18:24 | 53.41838 | 0.87162 | 38007 ft | 432 kts | 281° |
| 2026-05-05 18:24 | 53.43210 | 0.77367 | 38012 ft | 432 kts | 281° |
| 2026-05-05 18:25 | 53.44576 | 0.67558 | 38018 ft | 432 kts | 281° |
| 2026-05-05 18:25 | 53.45933 | 0.57748 | 38019 ft | 432 kts | 281° |
| 2026-05-05 18:26 | 53.47275 | 0.47951 | 38003 ft | 432 kts | 281° |
| 2026-05-05 18:26 | 53.48615 | 0.38119 | 38007 ft | 431 kts | 281° |
| 2026-05-05 18:27 | 53.49944 | 0.28300 | 38017 ft | 431 kts | 281° |
| 2026-05-05 18:27 | 53.51261 | 0.18481 | 38033 ft | 431 kts | 281° |
| 2026-05-05 18:28 | 53.53234 | 0.03726 | 38045 ft | 431 kts | 281° |
| 2026-05-05 18:28 | 53.54541 | -0.06128 | 38060 ft | 432 kts | 281° |
| 2026-05-05 18:29 | 53.55833 | -0.15983 | 38074 ft | 432 kts | 281° |
| 2026-05-05 18:29 | 53.57118 | -0.25858 | 38075 ft | 432 kts | 281° |
| 2026-05-05 18:30 | 53.58398 | -0.35739 | 38082 ft | 432 kts | 281° |
| 2026-05-05 18:30 | 53.59680 | -0.45631 | 38084 ft | 432 kts | 281° |
| 2026-05-05 18:31 | 53.60949 | -0.55521 | 38075 ft | 432 kts | 281° |
| 2026-05-05 18:31 | 53.62200 | -0.65412 | 38067 ft | 432 kts | 281° |
| 2026-05-05 18:32 | 53.63443 | -0.75313 | 38051 ft | 432 kts | 281° |
| 2026-05-05 18:32 | 53.64678 | -0.85211 | 38050 ft | 431 kts | 280° |
| 2026-05-05 18:33 | 53.65902 | -0.95112 | 38048 ft | 431 kts | 280° |
| 2026-05-05 18:33 | 53.67119 | -1.04952 | 38042 ft | 431 kts | 281° |
| 2026-05-05 18:34 | 53.68338 | -1.14859 | 38045 ft | 431 kts | 280° |
| 2026-05-05 18:34 | 53.69547 | -1.24840 | 38063 ft | 431 kts | 280° |
| 2026-05-05 18:35 | 53.70740 | -1.34756 | 38063 ft | 431 kts | 280° |
| 2026-05-05 18:35 | 53.71921 | -1.44686 | 38075 ft | 431 kts | 280° |
| 2026-05-05 18:36 | 53.73096 | -1.54612 | 38073 ft | 431 kts | 280° |
| 2026-05-05 18:36 | 53.74237 | -1.64470 | 38084 ft | 431 kts | 279° |
| 2026-05-05 18:37 | 53.75323 | -1.74431 | 38070 ft | 431 kts | 279° |
| 2026-05-05 18:37 | 53.76386 | -1.84381 | 38079 ft | 430 kts | 279° |
| 2026-05-05 18:38 | 53.77447 | -1.94340 | 38079 ft | 430 kts | 279° |
| 2026-05-05 18:38 | 53.78508 | -2.04287 | 38073 ft | 430 kts | 279° |
| 2026-05-05 18:39 | 53.79564 | -2.14231 | 38077 ft | 430 kts | 279° |
| 2026-05-05 18:39 | 53.80610 | -2.24180 | 38066 ft | 429 kts | 279° |
| 2026-05-05 18:40 | 53.81642 | -2.34122 | 38058 ft | 429 kts | 279° |
| 2026-05-05 18:40 | 53.82664 | -2.44063 | 38055 ft | 429 kts | 279° |
| 2026-05-05 18:41 | 53.83680 | -2.54006 | 38063 ft | 429 kts | 279° |
| 2026-05-05 18:41 | 53.84692 | -2.63950 | 38065 ft | 429 kts | 279° |
| 2026-05-05 18:42 | 53.85689 | -2.73907 | 38061 ft | 429 kts | 278° |
| 2026-05-05 18:42 | 53.86672 | -2.83865 | 38069 ft | 428 kts | 278° |
| 2026-05-05 18:43 | 53.87656 | -2.93813 | 38069 ft | 428 kts | 278° |
| 2026-05-05 18:43 | 53.88632 | -3.03764 | 38069 ft | 428 kts | 278° |
| 2026-05-05 18:44 | 53.89595 | -3.13722 | 38072 ft | 427 kts | 278° |
| 2026-05-05 18:44 | 53.90074 | -3.18698 | 37852 ft | 427 kts | 278° |
| 2026-05-05 18:44 | 53.90549 | -3.23660 | 37574 ft | 426 kts | 278° |
| 2026-05-05 18:45 | 53.91024 | -3.28617 | 37298 ft | 425 kts | 278° |
| 2026-05-05 18:45 | 53.91497 | -3.33565 | 37035 ft | 425 kts | 278° |
| 2026-05-05 18:45 | 53.91962 | -3.38503 | 36767 ft | 424 kts | 278° |
| 2026-05-05 18:45 | 53.92421 | -3.43436 | 36276 ft | 425 kts | 278° |
| 2026-05-05 18:46 | 53.92884 | -3.48406 | 35471 ft | 428 kts | 278° |
| 2026-05-05 18:46 | 53.93351 | -3.53392 | 34775 ft | 428 kts | 278° |
| 2026-05-05 18:46 | 53.93816 | -3.58364 | 34245 ft | 425 kts | 277° |
| 2026-05-05 18:46 | 53.94275 | -3.63306 | 33631 ft | 422 kts | 277° |
| 2026-05-05 18:47 | 53.94724 | -3.68190 | 33070 ft | 417 kts | 277° |
| 2026-05-05 18:47 | 53.95166 | -3.73051 | 32500 ft | 413 kts | 277° |
| 2026-05-05 18:47 | 53.95600 | -3.77840 | 31943 ft | 409 kts | 277° |
| 2026-05-05 18:47 | 53.96030 | -3.82596 | 31400 ft | 406 kts | 277° |
| 2026-05-05 18:48 | 53.96456 | -3.87317 | 30859 ft | 402 kts | 277° |
| 2026-05-05 18:48 | 53.96876 | -3.91993 | 30327 ft | 399 kts | 277° |
| 2026-05-05 18:48 | 53.97292 | -3.96635 | 29750 ft | 396 kts | 277° |
| 2026-05-05 18:48 | 53.97703 | -4.01233 | 29233 ft | 391 kts | 278° |
| 2026-05-05 18:49 | 53.98104 | -4.05765 | 28734 ft | 386 kts | 278° |
| 2026-05-05 18:49 | 53.98500 | -4.10240 | 28252 ft | 380 kts | 278° |
| 2026-05-05 18:49 | 53.98887 | -4.14655 | 27781 ft | 375 kts | 278° |
| 2026-05-05 18:49 | 53.99192 | -4.17539 | 27475 ft | 372 kts | 283° |
| 2026-05-05 18:50 | 54.00018 | -4.21673 | 27021 ft | 368 kts | 294° |
| 2026-05-05 18:50 | 54.01280 | -4.25433 | 26583 ft | 365 kts | 303° |
| 2026-05-05 18:50 | 54.02746 | -4.28932 | 26152 ft | 361 kts | 304° |
| 2026-05-05 18:50 | 54.04653 | -4.33514 | 25557 ft | 356 kts | 303° |
| 2026-05-05 18:51 | 54.06071 | -4.36944 | 25117 ft | 353 kts | 303° |
| 2026-05-05 18:51 | 54.07021 | -4.39249 | 24806 ft | 351 kts | 303° |
| 2026-05-05 18:51 | 54.08419 | -4.42650 | 24348 ft | 349 kts | 303° |
| 2026-05-05 18:51 | 54.09805 | -4.46031 | 23883 ft | 347 kts | 303° |
| 2026-05-05 18:52 | 54.11186 | -4.49400 | 23391 ft | 346 kts | 303° |
| 2026-05-05 18:52 | 54.12561 | -4.52748 | 22900 ft | 343 kts | 303° |
| 2026-05-05 18:52 | 54.13908 | -4.56029 | 22440 ft | 341 kts | 303° |
| 2026-05-05 18:52 | 54.15261 | -4.59335 | 21992 ft | 340 kts | 303° |
| 2026-05-05 18:53 | 54.16610 | -4.62634 | 21555 ft | 338 kts | 303° |
| 2026-05-05 18:53 | 54.17956 | -4.65920 | 21135 ft | 337 kts | 303° |
| 2026-05-05 18:53 | 54.19294 | -4.69185 | 20725 ft | 335 kts | 303° |
| 2026-05-05 18:53 | 54.20624 | -4.72434 | 20313 ft | 333 kts | 303° |
| 2026-05-05 18:54 | 54.21943 | -4.75663 | 19908 ft | 330 kts | 303° |
| 2026-05-05 18:54 | 54.23251 | -4.78874 | 19521 ft | 328 kts | 303° |
| 2026-05-05 18:54 | 54.24553 | -4.82074 | 19126 ft | 326 kts | 303° |
| 2026-05-05 18:54 | 54.25844 | -4.85252 | 18737 ft | 324 kts | 303° |
| 2026-05-05 18:55 | 54.27120 | -4.88400 | 18370 ft | 323 kts | 303° |
| 2026-05-05 18:55 | 54.28396 | -4.91550 | 17923 ft | 321 kts | 303° |
| 2026-05-05 18:55 | 54.29664 | -4.94681 | 17487 ft | 319 kts | 303° |
| 2026-05-05 18:55 | 54.30925 | -4.97797 | 17057 ft | 317 kts | 303° |
| 2026-05-05 18:56 | 54.32175 | -5.00890 | 16634 ft | 315 kts | 303° |
| 2026-05-05 18:56 | 54.33418 | -5.03973 | 16220 ft | 314 kts | 303° |
| 2026-05-05 18:56 | 54.34652 | -5.07040 | 15817 ft | 313 kts | 303° |
| 2026-05-05 18:56 | 54.35880 | -5.10097 | 15416 ft | 311 kts | 303° |
| 2026-05-05 18:57 | 54.37106 | -5.13154 | 15013 ft | 310 kts | 303° |
| 2026-05-05 18:57 | 54.38329 | -5.16200 | 14618 ft | 309 kts | 303° |
| 2026-05-05 18:57 | 54.39543 | -5.19223 | 14224 ft | 308 kts | 303° |
| 2026-05-05 18:57 | 54.40758 | -5.22245 | 13839 ft | 307 kts | 303° |
| 2026-05-05 18:58 | 54.41965 | -5.25258 | 13410 ft | 305 kts | 303° |
| 2026-05-05 18:58 | 54.43161 | -5.28251 | 12980 ft | 304 kts | 303° |
| 2026-05-05 18:58 | 54.44354 | -5.31241 | 12570 ft | 302 kts | 303° |
| 2026-05-05 18:58 | 54.45606 | -5.34121 | 12140 ft | 301 kts | 311° |
| 2026-05-05 18:59 | 54.47052 | -5.36714 | 11731 ft | 300 kts | 313° |
| 2026-05-05 18:59 | 54.48497 | -5.39293 | 11325 ft | 298 kts | 313° |
| 2026-05-05 18:59 | 54.49935 | -5.41865 | 10927 ft | 297 kts | 313° |
| 2026-05-05 18:59 | 54.51361 | -5.44417 | 10538 ft | 295 kts | 313° |
| 2026-05-05 19:00 | 54.52639 | -5.47153 | 10148 ft | 292 kts | 306° |
| 2026-05-05 19:00 | 54.53834 | -5.49975 | 9725 ft | 291 kts | 306° |
| 2026-05-05 19:00 | 54.55001 | -5.52726 | 9301 ft | 283 kts | 306° |
| 2026-05-05 19:00 | 54.56136 | -5.55396 | 8870 ft | 270 kts | 306° |
| 2026-05-05 19:01 | 54.57236 | -5.57986 | 8451 ft | 260 kts | 306° |
| 2026-05-05 19:01 | 54.58303 | -5.60504 | 8038 ft | 257 kts | 307° |
| 2026-05-05 19:01 | 54.59335 | -5.62950 | 7629 ft | 249 kts | 307° |
| 2026-05-05 19:01 | 54.60357 | -5.65367 | 7235 ft | 250 kts | 307° |
| 2026-05-05 19:02 | 54.61370 | -5.67765 | 6835 ft | 252 kts | 307° |
| 2026-05-05 19:02 | 54.62413 | -5.70243 | 6432 ft | 252 kts | 307° |
| 2026-05-05 19:02 | 54.63433 | -5.72669 | 6011 ft | 253 kts | 307° |
| 2026-05-05 19:02 | 54.64466 | -5.75133 | 5590 ft | 253 kts | 307° |
| 2026-05-05 19:03 | 54.65502 | -5.77598 | 5171 ft | 254 kts | 307° |
| 2026-05-05 19:03 | 54.66539 | -5.80068 | 4760 ft | 254 kts | 307° |
| 2026-05-05 19:03 | 54.67574 | -5.82533 | 4337 ft | 253 kts | 307° |
| 2026-05-05 19:03 | 54.68605 | -5.84996 | 3916 ft | 252 kts | 308° |
| 2026-05-05 19:04 | 54.69634 | -5.87453 | 3505 ft | 253 kts | 308° |
| 2026-05-05 19:04 | 54.70663 | -5.89914 | 3072 ft | 251 kts | 308° |
| 2026-05-05 19:04 | 54.71604 | -5.92420 | 2645 ft | 249 kts | 298° |
| 2026-05-05 19:04 | 54.72038 | -5.95238 | 2484 ft | 232 kts | 277° |
| 2026-05-05 19:05 | 54.71942 | -5.97811 | 2509 ft | 197 kts | 263° |
| 2026-05-05 19:05 | 54.71549 | -5.99894 | 2502 ft | 172 kts | 251° |
| 2026-05-05 19:05 | 54.71066 | -6.01707 | 2476 ft | 160 kts | 251° |
| 2026-05-05 19:05 | 54.70610 | -6.03417 | 2355 ft | 154 kts | 251° |
| 2026-05-05 19:06 | 54.70167 | -6.05079 | 2184 ft | 151 kts | 251° |
| 2026-05-05 19:06 | 54.69727 | -6.06730 | 1985 ft | 151 kts | 250° |
| 2026-05-05 19:06 | 54.69288 | -6.08374 | 1786 ft | 149 kts | 251° |
| 2026-05-05 19:06 | 54.68854 | -6.09998 | 1571 ft | 148 kts | 250° |
| 2026-05-05 19:07 | 54.68421 | -6.11616 | 1358 ft | 148 kts | 250° |
| 2026-05-05 19:07 | 54.67991 | -6.13223 | 1139 ft | 146 kts | 250° |
| 2026-05-05 19:07 | 54.67565 | -6.14812 | 935 ft | 145 kts | 252° |
| 2026-05-05 19:07 | 54.67141 | -6.16391 | 734 ft | 145 kts | 249° |
| 2026-05-05 19:08 | 54.66719 | -6.17969 | 531 ft | 143 kts | 251° |
| 2026-05-05 19:08 | 54.66288 | -6.19532 | 337 ft | 144 kts | 250° |
| 2026-05-05 19:08 | 54.65908 | -6.21038 | 252 ft | 126 kts | 239° |
| 2026-05-05 19:08 | 54.65645 | -6.21964 | 234 ft | 42 kts | 243° |
| 2026-05-05 19:09 | 54.65565 | -6.22259 | 231 ft | 28 kts | 246° |
| 2026-05-05 19:09 | 54.65483 | -6.22567 | 230 ft | 25 kts | 251° |
| 2026-05-05 19:09 | 54.65581 | -6.22745 | 226 ft | 24 kts | 342° |
| 2026-05-05 19:09 | 54.65728 | -6.22759 | 223 ft | 20 kts | 44° |
| 2026-05-05 19:10 | 54.65743 | -6.22635 | 221 ft | 6 kts | 77° |
| 2026-05-05 19:10 | 54.65748 | -6.22585 | 223 ft | 4 kts | 82° |
| 2026-05-05 19:10 | 54.65753 | -6.22520 | 227 ft | 10 kts | 84° |
| 2026-05-05 19:10 | 54.65762 | -6.22363 | 230 ft | 12 kts | 82° |
| 2026-05-05 19:11 | 54.65771 | -6.22253 | 233 ft | 7 kts | 83° |
| 2026-05-05 19:11 | 54.65777 | -6.22184 | 235 ft | 7 kts | 78° |
| 2026-05-05 19:11 | 54.65795 | -6.22084 | 237 ft | 11 kts | 67° |
| 2026-05-05 19:11 | 54.65833 | -6.21947 | 240 ft | 15 kts | 64° |
| 2026-05-05 19:12 | 54.65883 | -6.21765 | 243 ft | 18 kts | 65° |
| 2026-05-05 19:12 | 54.65936 | -6.21567 | 246 ft | 16 kts | 65° |
| 2026-05-05 19:12 | 54.65987 | -6.21427 | 249 ft | 12 kts | 23° |
| 2026-05-05 19:12 | 54.66050 | -6.21453 | 248 ft | 8 kts | 334° |
| 2026-05-05 19:13 | 54.66085 | -6.21481 | 247 ft | 1 kts | 335° |
| 2026-05-05 19:13 | 54.66089 | -6.21484 | 247 ft | 0 kts | 335° |